Time;durP1;ratioP1;P1;durP2;ratioP2;P2;SDS_P1;SDS_P2;PMS_P1;PMS_P2;Temp;Humidity;BMP_temperature;BMP_pressure;BME280_temperature;BME280_humidity;BME280_pressure;Samples;Min_cycle;Max_cycle;Signal;HPM_P1;HPM_P2
2022/06/22 00:01:02;;;;;;;2.53;2.27;;;13.40;99.90;;;;;;4992759;28;20256;-66
2022/06/22 00:03:30;;;;;;;2.87;2.30;;;13.40;99.90;;;;;;4975733;28;20196;-65
2022/06/22 00:05:57;;;;;;;3.30;2.30;;;13.40;99.90;;;;;;4993444;28;20287;-66
2022/06/22 00:08:29;;;;;;;2.50;2.30;;;13.40;99.90;;;;;;4992184;28;20209;-65
2022/06/22 00:11:03;;;;;;;3.47;2.60;;;13.20;99.90;;;;;;4992025;28;20209;-65
2022/06/22 00:13:32;;;;;;;3.77;2.60;;;13.30;99.90;;;;;;4992255;28;20201;-65
2022/06/22 00:16:01;;;;;;;4.33;2.60;;;13.20;99.90;;;;;;4993057;28;20251;-65
2022/06/22 00:18:33;;;;;;;4.00;2.50;;;13.40;99.90;;;;;;4991540;28;20205;-65
2022/06/22 00:21:03;;;;;;;6.23;2.67;;;13.40;99.90;;;;;;4988137;28;20232;-65
2022/06/22 00:23:37;;;;;;;5.60;2.53;;;13.20;99.90;;;;;;4991885;28;20282;-65
2022/06/22 00:26:26;;;;;;;5.60;2.47;;;13.10;99.90;;;;;;4982368;28;20550;-66
2022/06/22 00:28:57;;;;;;;3.13;2.53;;;13.10;99.90;;;;;;4991076;28;20215;-65
2022/06/22 00:31:38;;;;;;;3.97;2.50;;;13.00;99.90;;;;;;4990873;28;20209;-66
2022/06/22 00:34:15;;;;;;;6.63;2.77;;;12.90;99.90;;;;;;4981116;28;20205;-66
2022/06/22 00:36:46;;;;;;;5.80;2.53;;;12.90;99.90;;;;;;4969591;28;20216;-65
2022/06/22 00:39:19;;;;;;;2.80;2.60;;;12.80;99.90;;;;;;4991861;28;20739;-66
2022/06/22 00:41:51;;;;;;;5.93;2.60;;;12.90;99.90;;;;;;4991689;28;20271;-65
2022/06/22 00:44:20;;;;;;;4.30;2.70;;;12.90;99.90;;;;;;4991949;28;20677;-65
2022/06/22 00:46:54;;;;;;;3.00;2.70;;;13.00;99.90;;;;;;4992604;28;20698;-65
2022/06/22 00:49:24;;;;;;;4.20;3.20;;;12.80;99.90;;;;;;4974689;28;20650;-65
2022/06/22 00:51:51;;;;;;;4.87;2.93;;;12.80;99.90;;;;;;4992390;28;20228;-65
2022/06/22 00:54:26;;;;;;;3.23;2.90;;;12.80;99.90;;;;;;4991818;28;20268;-66
2022/06/22 00:57:00;;;;;;;3.00;2.40;;;12.80;99.90;;;;;;4973988;28;20291;-66
2022/06/22 00:59:34;;;;;;;2.70;2.50;;;12.90;99.90;;;;;;4974645;28;20299;-65
2022/06/22 01:02:09;;;;;;;3.27;2.50;;;12.70;99.90;;;;;;4988732;28;20698;-65
2022/06/22 01:04:41;;;;;;;2.83;2.53;;;12.60;99.90;;;;;;4971735;28;20682;-66
2022/06/22 01:07:17;;;;;;;5.77;3.10;;;12.60;99.90;;;;;;4992167;28;20288;-65
2022/06/22 01:09:50;;;;;;;3.00;2.70;;;12.60;99.90;;;;;;4991256;28;20196;-65
2022/06/22 01:12:25;;;;;;;3.83;2.60;;;12.60;99.90;;;;;;4974805;28;20205;-65
2022/06/22 01:15:11;;;;;;;4.33;3.00;;;12.60;99.90;;;;;;4974162;28;20201;-65
2022/06/22 01:17:47;;;;;;;4.33;3.00;;;12.40;99.90;;;;;;4992604;28;20271;-65
2022/06/22 01:20:25;;;;;;;5.63;3.27;;;12.80;99.90;;;;;;4991267;28;20212;-65
2022/06/22 01:23:10;;;;;;;6.00;3.10;;;13.00;99.90;;;;;;4975351;28;20602;-66
2022/06/22 01:25:51;;;;;;;9.17;3.27;;;13.00;99.90;;;;;;4989504;28;20674;-65
2022/06/22 01:28:19;;;;;;;4.17;2.87;;;13.00;99.90;;;;;;4991900;28;20292;-65
2022/06/22 01:30:51;;;;;;;4.60;3.03;;;12.90;99.90;;;;;;4991427;28;20280;-66
2022/06/22 01:33:23;;;;;;;7.53;2.83;;;12.90;99.90;;;;;;4972829;28;20949;-65
2022/06/22 01:35:54;;;;;;;7.63;3.43;;;12.80;99.90;;;;;;4979653;28;20212;-66
2022/06/22 01:38:24;;;;;;;4.00;2.90;;;12.80;99.90;;;;;;4996113;28;20623;-66
2022/06/22 01:41:03;;;;;;;6.67;3.10;;;12.50;99.90;;;;;;4995222;28;20217;-66
2022/06/22 01:43:35;;;;;;;3.67;3.17;;;12.40;99.90;;;;;;4995591;28;20582;-66
2022/06/22 01:46:09;;;;;;;6.73;3.37;;;12.30;99.90;;;;;;4995471;28;20288;-65
2022/06/22 01:48:41;;;;;;;4.70;2.97;;;12.40;99.90;;;;;;4987878;28;20234;-66
2022/06/22 01:51:29;;;;;;;4.50;3.00;;;12.40;99.90;;;;;;4986176;28;20623;-66
2022/06/22 01:54:01;;;;;;;5.00;3.23;;;12.30;99.90;;;;;;4975352;28;20280;-66
2022/06/22 01:56:37;;;;;;;3.60;3.23;;;12.30;99.90;;;;;;4992660;28;20232;-65
2022/06/22 01:59:18;;;;;;;5.37;3.13;;;12.20;99.90;;;;;;4995289;28;20593;-65
2022/06/22 02:01:52;;;;;;;6.83;3.37;;;12.10;99.90;;;;;;4995207;28;20217;-65
2022/06/22 02:04:26;;;;;;;6.27;3.73;;;12.00;99.90;;;;;;4978205;28;20209;-65
2022/06/22 02:09:57;;;;;;;5.37;3.70;;;12.00;99.90;;;;;;4961021;28;20247;-66
2022/06/22 02:12:29;;;;;;;5.73;3.10;;;12.00;99.90;;;;;;4994735;28;20247;-65
2022/06/22 02:15:03;;;;;;;5.77;3.30;;;12.00;99.90;;;;;;4995470;28;20221;-65
2022/06/22 02:17:34;;;;;;;6.63;3.70;;;11.90;99.90;;;;;;4994859;28;20263;-65
2022/06/22 02:20:36;;;;;;;6.67;3.97;;;11.90;99.90;;;;;;4994955;28;20201;-65
2022/06/22 02:23:10;;;;;;;3.73;3.43;;;12.00;99.90;;;;;;4934500;29;20199;-65
2022/06/22 02:25:45;;;;;;;4.80;3.33;;;12.00;99.90;;;;;;4985876;28;20244;-65
2022/06/22 02:28:12;;;;;;;7.43;3.30;;;12.00;99.90;;;;;;4976292;28;20288;-65
2022/06/22 02:30:42;;;;;;;6.50;3.57;;;11.90;99.90;;;;;;4993966;28;20590;-66
2022/06/22 02:33:10;;;;;;;3.83;3.50;;;11.80;99.90;;;;;;4994904;28;20596;-66
2022/06/22 02:35:40;;;;;;;5.03;3.80;;;11.80;99.90;;;;;;4994041;28;22299;-65
2022/06/22 02:38:11;;;;;;;6.63;3.30;;;11.80;99.90;;;;;;4993267;28;20625;-68
2022/06/22 02:46:18;;;;;;;5.53;3.87;;;11.70;99.90;;;;;;4995320;28;20718;-68
2022/06/22 02:48:47;;;;;;;4.73;3.33;;;11.90;99.90;;;;;;4992748;28;20283;-68
2022/06/22 02:51:21;;;;;;;6.13;3.87;;;11.90;99.90;;;;;;4987884;28;20207;-68
2022/06/22 02:53:49;;;;;;;4.10;3.70;;;11.80;99.90;;;;;;4986541;28;20209;-68
2022/06/22 02:56:21;;;;;;;5.43;3.53;;;11.70;99.90;;;;;;4975977;28;20220;-68
2022/06/22 02:58:49;;;;;;;6.53;3.50;;;11.80;99.90;;;;;;4975736;28;20205;-68
2022/06/22 03:01:19;;;;;;;4.40;3.70;;;12.00;99.90;;;;;;4994708;28;20224;-68
2022/06/22 03:03:51;;;;;;;6.93;3.87;;;12.10;99.90;;;;;;4993366;28;20281;-68
2022/06/22 03:06:21;;;;;;;8.10;3.90;;;12.10;99.90;;;;;;4986373;28;20644;-68
2022/06/22 03:08:49;;;;;;;5.90;3.50;;;12.10;99.90;;;;;;4994738;28;20201;-68
2022/06/22 03:11:17;;;;;;;6.30;3.93;;;11.80;99.90;;;;;;4994382;28;20635;-68
2022/06/22 03:13:47;;;;;;;7.80;4.40;;;11.80;99.90;;;;;;4984203;28;21496;-68
2022/06/22 03:16:23;;;;;;;7.17;4.27;;;11.90;99.90;;;;;;4994295;28;20288;-68
2022/06/22 03:18:50;;;;;;;5.90;4.00;;;12.00;99.90;;;;;;4994911;28;20209;-66
2022/06/22 03:21:19;;;;;;;5.37;4.30;;;11.90;99.90;;;;;;4994607;28;20221;-66
2022/06/22 03:23:51;;;;;;;11.33;6.93;;;12.10;99.90;;;;;;4994894;28;20739;-66
2022/06/22 03:26:22;;;;;;;10.37;6.77;;;12.20;99.90;;;;;;4994680;28;20248;-66
2022/06/22 03:28:52;;;;;;;5.13;3.67;;;12.20;99.90;;;;;;4994783;28;20219;-66
2022/06/22 03:31:26;;;;;;;4.37;3.47;;;12.20;99.90;;;;;;4994740;28;20236;-66
2022/06/22 03:33:58;;;;;;;6.03;3.87;;;12.10;99.90;;;;;;4984523;28;20653;-66
2022/06/22 03:36:34;;;;;;;5.40;3.83;;;12.00;99.90;;;;;;4984767;28;20248;-66
2022/06/22 03:39:05;;;;;;;4.80;3.70;;;11.90;99.90;;;;;;4994469;28;20204;-66
2022/06/22 03:41:36;;;;;;;5.93;3.43;;;12.00;99.90;;;;;;4994317;28;20225;-66
2022/06/22 03:44:10;;;;;;;7.10;3.50;;;12.10;99.90;;;;;;4994440;28;20667;-66
2022/06/22 03:46:43;;;;;;;4.67;3.37;;;11.80;99.90;;;;;;4976427;28;20255;-66
2022/06/22 03:49:18;;;;;;;4.07;3.37;;;12.00;99.90;;;;;;4974639;28;20201;-65
2022/06/22 03:51:50;;;;;;;6.43;3.63;;;12.10;99.90;;;;;;4974726;28;20660;-66
2022/06/22 03:54:24;;;;;;;5.37;3.50;;;12.20;99.90;;;;;;4974836;28;20601;-66
2022/06/22 03:56:55;;;;;;;4.73;3.83;;;12.20;99.90;;;;;;4983545;28;20207;-66
2022/06/22 03:59:22;;;;;;;5.60;3.60;;;12.60;99.90;;;;;;4993325;28;20201;-66
2022/06/22 04:01:51;;;;;;;10.90;3.87;;;12.90;99.90;;;;;;4994170;28;20209;-66
2022/06/22 04:04:18;;;;;;;4.97;3.67;;;13.00;99.90;;;;;;4993604;28;20666;-66
2022/06/22 04:06:47;;;;;;;7.00;4.50;;;13.00;99.90;;;;;;4992468;28;20208;-66
2022/06/22 04:09:18;;;;;;;7.67;4.77;;;13.10;99.90;;;;;;4978984;28;20576;-66
2022/06/22 04:11:51;;;;;;;8.23;4.83;;;13.50;99.90;;;;;;4993396;28;20643;-66
2022/06/22 04:14:22;;;;;;;9.80;4.70;;;15.50;99.90;;;;;;4993485;28;20655;-66
2022/06/22 04:16:54;;;;;;;24.23;14.90;;;16.50;99.90;;;;;;4993945;28;20211;-66
2022/06/22 04:19:27;;;;;;;10.80;4.67;;;17.10;99.90;;;;;;4977048;28;20209;-66
2022/06/22 04:21:58;;;;;;;19.90;14.47;;;17.40;99.90;;;;;;4987397;28;20220;-66
2022/06/22 04:24:30;;;;;;;12.70;6.80;;;17.40;99.90;;;;;;4987623;28;20205;-66
2022/06/22 04:27:05;;;;;;;4.30;3.63;;;17.40;99.90;;;;;;4984955;28;20209;-66
2022/06/22 04:29:36;;;;;;;5.47;3.63;;;15.90;99.90;;;;;;4960884;28;20201;-66
2022/06/22 04:32:14;;;;;;;6.78;3.97;;;14.70;99.90;;;;;;4972969;28;20213;-66
2022/06/22 04:34:46;;;;;;;5.70;3.55;;;14.30;99.90;;;;;;4974047;28;20208;-66
2022/06/22 04:37:24;;;;;;;5.35;4.03;;;14.10;99.90;;;;;;4988691;28;20220;-66
2022/06/22 04:39:55;;;;;;;5.75;3.92;;;14.30;99.90;;;;;;4993322;28;20713;-66
2022/06/22 04:42:22;;;;;;;5.10;3.83;;;15.40;99.90;;;;;;4993320;28;20228;-66
2022/06/22 04:44:51;;;;;;;6.60;3.45;;;14.90;99.90;;;;;;4993454;28;20212;-66
2022/06/22 04:47:25;;;;;;;8.85;4.50;;;14.60;99.90;;;;;;4992908;28;20205;-66
2022/06/22 04:49:55;;;;;;;8.90;3.70;;;14.30;99.90;;;;;;4993475;28;20240;-66
2022/06/22 04:52:27;;;;;;;7.70;3.75;;;14.40;99.90;;;;;;4992981;28;20209;-66
2022/06/22 04:54:58;;;;;;;5.03;4.10;;;14.40;99.90;;;;;;4993132;28;20212;-66
2022/06/22 04:57:28;;;;;;;10.17;4.70;;;14.50;99.90;;;;;;4993496;28;20213;-66
2022/06/22 04:59:56;;;;;;;6.53;3.92;;;14.50;99.90;;;;;;4993052;28;20212;-66
2022/06/22 05:02:28;;;;;;;5.20;4.05;;;14.70;99.90;;;;;;4993360;28;20221;-66
2022/06/22 05:04:59;;;;;;;4.68;3.90;;;14.90;99.90;;;;;;4993366;28;20738;-66
2022/06/22 05:07:35;;;;;;;7.07;4.63;;;14.90;99.90;;;;;;4993513;28;20610;-66
2022/06/22 05:10:11;;;;;;;7.47;4.47;;;15.60;99.90;;;;;;4993101;28;20271;-66
2022/06/22 05:12:45;;;;;;;6.82;4.25;;;16.40;99.90;;;;;;4996169;28;20208;-66
2022/06/22 05:15:21;;;;;;;8.88;4.05;;;16.00;99.90;;;;;;4979566;28;20204;-66
2022/06/22 05:17:50;;;;;;;5.97;4.00;;;15.90;99.90;;;;;;4987807;28;20205;-66
2022/06/22 05:20:23;;;;;;;6.78;3.95;;;15.50;99.90;;;;;;4984175;28;20228;-66
2022/06/22 05:22:54;;;;;;;9.83;4.60;;;15.20;99.90;;;;;;4996950;28;20591;-66
2022/06/22 05:25:21;;;;;;;7.77;4.37;;;15.50;99.90;;;;;;4996979;28;20209;-66
2022/06/22 05:27:56;;;;;;;6.53;4.43;;;16.50;99.90;;;;;;4997135;28;20212;-66
2022/06/22 05:30:23;;;;;;;7.70;5.47;;;17.30;99.90;;;;;;4979131;28;20207;-66
2022/06/22 05:32:55;;;;;;;5.67;4.60;;;16.20;99.90;;;;;;4996811;28;20208;-66
2022/06/22 05:35:27;;;;;;;5.77;4.30;;;16.10;99.90;;;;;;4996576;28;20220;-66
2022/06/22 05:37:57;;;;;;;7.00;4.93;;;16.20;99.90;;;;;;4997003;28;20217;-66
2022/06/22 05:40:27;;;;;;;8.23;5.03;;;16.30;99.90;;;;;;4996641;28;20212;-66
2022/06/22 05:42:55;;;;;;;7.82;4.55;;;16.50;99.90;;;;;;4996727;28;20255;-66
2022/06/22 05:45:25;;;;;;;10.32;4.80;;;17.90;99.90;;;;;;4996761;28;20205;-66
2022/06/22 05:47:55;;;;;;;6.95;4.78;;;18.70;99.90;;;;;;4996338;28;20201;-66
2022/06/22 05:50:32;;;;;;;8.88;4.50;;;17.70;99.90;;;;;;4988290;28;20208;-66
2022/06/22 05:53:05;;;;;;;7.28;4.60;;;17.40;99.90;;;;;;4987920;28;20775;-66
2022/06/22 05:55:40;;;;;;;7.63;4.70;;;17.50;99.90;;;;;;4996543;28;20648;-66
2022/06/22 05:58:14;;;;;;;7.15;5.15;;;17.80;99.90;;;;;;4996100;28;20208;-66
2022/06/22 06:00:47;;;;;;;9.68;5.75;;;17.20;99.90;;;;;;4996483;28;20204;-66
2022/06/22 06:03:34;;;;;;;10.23;4.60;;;16.80;99.90;;;;;;4996459;28;20651;-66
2022/06/22 06:06:06;;;;;;;5.88;5.18;;;16.80;99.90;;;;;;4995945;28;20227;-66
2022/06/22 06:08:40;;;;;;;9.55;4.97;;;16.90;99.90;;;;;;4995598;28;20205;-66
2022/06/22 06:11:09;;;;;;;7.28;4.72;;;17.40;99.90;;;;;;4995629;28;20209;-66
2022/06/22 06:13:39;;;;;;;7.45;5.70;;;17.70;99.90;;;;;;4996084;28;20212;-66
2022/06/22 06:16:12;;;;;;;5.72;4.82;;;17.80;99.90;;;;;;4996142;28;20205;-66
2022/06/22 06:18:44;;;;;;;8.02;4.60;;;17.20;99.90;;;;;;4995896;28;20200;-66
2022/06/22 06:21:15;;;;;;;10.15;4.65;;;17.20;99.90;;;;;;4995611;28;20212;-66
2022/06/22 06:23:46;;;;;;;11.80;6.00;;;17.00;99.90;;;;;;4995962;28;20236;-66
2022/06/22 06:29:09;;;;;;;5.65;4.88;;;17.70;99.90;;;;;;4995853;28;20272;-66
2022/06/22 06:31:44;;;;;;;8.70;4.85;;;17.20;99.90;;;;;;4995832;28;20640;-66
2022/06/22 06:34:17;;;;;;;12.05;5.40;;;17.50;99.90;;;;;;4976607;28;20217;-72
2022/06/22 06:36:50;;;;;;;8.82;5.57;;;17.80;99.90;;;;;;4994715;28;20248;-73
2022/06/22 06:39:22;;;;;;;11.40;5.40;;;17.70;99.90;;;;;;4995604;28;20213;-72
2022/06/22 06:42:04;;;;;;;8.98;5.50;;;17.70;99.90;;;;;;4995255;28;20209;-72
2022/06/22 06:44:34;;;;;;;8.23;5.22;;;17.60;99.90;;;;;;4995887;28;20209;-72
2022/06/22 06:47:05;;;;;;;10.07;5.57;;;17.60;99.90;;;;;;4995753;28;20204;-72
2022/06/22 06:49:36;;;;;;;11.30;6.03;;;17.30;99.90;;;;;;4995217;28;20201;-72
2022/06/22 06:52:12;;;;;;;7.90;5.72;;;17.40;99.90;;;;;;4983572;28;20201;-72
2022/06/22 06:54:44;;;;;;;9.55;6.43;;;17.70;99.90;;;;;;4975696;28;20193;-71
2022/06/22 06:57:14;;;;;;;9.98;6.53;;;17.60;99.90;;;;;;4975927;28;20228;-71
2022/06/22 06:59:45;;;;;;;8.40;5.70;;;17.90;99.90;;;;;;4975850;28;20675;-71
2022/06/22 07:02:15;;;;;;;9.45;6.70;;;17.60;99.90;;;;;;4975906;28;20222;-71
2022/06/22 07:04:45;;;;;;;7.20;5.93;;;17.70;99.90;;;;;;4977285;28;20671;-71
2022/06/22 07:07:28;;;;;;;10.93;6.28;;;17.80;99.90;;;;;;4994459;28;20536;-71
2022/06/22 07:09:59;;;;;;;10.68;5.80;;;18.20;99.90;;;;;;4995016;28;20205;-71
2022/06/22 07:12:31;;;;;;;8.50;6.13;;;18.10;99.90;;;;;;4995167;28;20209;-71
2022/06/22 07:15:01;;;;;;;9.98;5.80;;;18.00;99.90;;;;;;4994938;28;20224;-71
2022/06/22 07:17:31;;;;;;;9.50;5.78;;;18.20;99.90;;;;;;4994540;28;20211;-71
2022/06/22 07:20:04;;;;;;;11.57;5.88;;;18.00;99.90;;;;;;4994370;28;20224;-71
2022/06/22 07:22:36;;;;;;;9.85;6.00;;;17.90;99.90;;;;;;4977289;28;20311;-71
2022/06/22 07:25:08;;;;;;;7.72;5.75;;;18.00;99.90;;;;;;4994769;28;20300;-71
2022/06/22 07:27:40;;;;;;;8.98;5.68;;;18.20;99.90;;;;;;4994859;28;20209;-71
2022/06/22 07:30:14;;;;;;;8.10;5.78;;;18.30;99.90;;;;;;4994583;28;20236;-71
2022/06/22 07:32:47;;;;;;;11.35;6.13;;;18.30;99.90;;;;;;4994757;28;20211;-71
2022/06/22 07:35:20;;;;;;;7.72;5.78;;;18.40;99.90;;;;;;4994012;28;20236;-71
2022/06/22 07:37:57;;;;;;;10.27;4.90;;;18.40;99.90;;;;;;4977295;28;20217;-72
2022/06/22 07:40:28;;;;;;;8.32;5.15;;;18.60;99.90;;;;;;4977133;28;20746;-71
2022/06/22 07:42:58;;;;;;;8.50;5.03;;;18.50;99.90;;;;;;4994593;28;20220;-71
2022/06/22 07:45:26;;;;;;;5.85;4.60;;;18.50;99.90;;;;;;4994684;28;20656;-71
2022/06/22 07:47:57;;;;;;;8.85;5.38;;;18.40;99.90;;;;;;4994301;28;20216;-71
2022/06/22 07:50:29;;;;;;;7.57;4.53;;;18.60;99.90;;;;;;4994174;28;20647;-72
2022/06/22 07:53:00;;;;;;;9.60;5.18;;;18.80;99.90;;;;;;4993795;28;20205;-72
2022/06/22 07:55:39;;;;;;;9.90;5.25;;;18.80;99.90;;;;;;4994210;28;20209;-72
2022/06/22 07:58:22;;;;;;;6.70;4.60;;;18.80;99.90;;;;;;4994261;28;20205;-72
2022/06/22 08:00:55;;;;;;;5.80;4.35;;;19.00;99.90;;;;;;4976673;28;20211;-72
2022/06/22 08:03:30;;;;;;;10.23;4.80;;;19.00;99.90;;;;;;4993977;28;20244;-72
2022/06/22 08:06:03;;;;;;;8.30;4.90;;;18.90;99.90;;;;;;4994087;28;20216;-72
2022/06/22 08:08:34;;;;;;;10.75;4.90;;;19.00;99.90;;;;;;4993827;28;20211;-72
2022/06/22 08:11:08;;;;;;;11.32;5.22;;;18.60;99.90;;;;;;4993850;28;20690;-72
2022/06/22 08:13:40;;;;;;;6.80;4.47;;;18.60;99.90;;;;;;4994207;28;20209;-72
2022/06/22 08:16:12;;;;;;;10.70;5.10;;;18.90;99.90;;;;;;4994198;28;20209;-72
2022/06/22 08:18:39;;;;;;;6.05;4.53;;;19.00;99.90;;;;;;4993808;28;20205;-72
2022/06/22 08:21:13;;;;;;;8.73;4.38;;;19.20;99.90;;;;;;4993472;28;20212;-72
2022/06/22 08:23:40;;;;;;;6.70;4.30;;;19.40;99.90;;;;;;4987685;28;20221;-71
2022/06/22 08:26:13;;;;;;;7.60;4.57;;;19.50;99.90;;;;;;4987731;28;20209;-72
2022/06/22 08:28:40;;;;;;;6.38;4.30;;;19.60;99.90;;;;;;4991904;28;20679;-72
2022/06/22 08:31:08;;;;;;;5.57;3.85;;;19.80;99.90;;;;;;4984141;28;20630;-71
2022/06/22 08:33:39;;;;;;;5.93;4.03;;;19.40;99.90;;;;;;4986536;28;20658;-72
2022/06/22 08:36:12;;;;;;;7.55;3.97;;;19.50;99.90;;;;;;4985169;28;20213;-71
2022/06/22 08:38:43;;;;;;;5.15;3.85;;;19.60;99.90;;;;;;4983768;28;20251;-72
2022/06/22 08:41:19;;;;;;;6.68;3.63;;;19.60;99.90;;;;;;4992877;28;20209;-72
2022/06/22 08:43:52;;;;;;;4.82;3.40;;;19.60;99.90;;;;;;4993419;28;20233;-72
2022/06/22 08:46:54;;;;;;;4.25;3.55;;;19.70;99.90;;;;;;4992827;28;20224;-72
2022/06/22 08:49:40;;;;;;;4.15;3.60;;;20.00;99.90;;;;;;4972155;28;20212;-72
2022/06/22 08:52:32;;;;;;;6.72;3.95;;;20.20;99.90;;;;;;4987900;28;20205;-72
2022/06/22 08:55:17;;;;;;;5.47;3.80;;;20.70;96.60;;;;;;4975274;28;20201;-72
2022/06/22 08:57:57;;;;;;;6.82;3.75;;;20.80;96.80;;;;;;4993479;28;20208;-72
2022/06/22 09:00:31;;;;;;;6.72;3.45;;;21.20;91.30;;;;;;4976009;28;20574;-72
2022/06/22 09:03:46;;;;;;;3.53;3.22;;;21.40;96.40;;;;;;4975503;28;20228;-73
2022/06/22 09:06:39;;;;;;;6.28;3.35;;;21.90;85.40;;;;;;4993564;28;20205;-72
2022/06/22 09:09:33;;;;;;;9.30;3.20;;;21.90;87.90;;;;;;4992502;28;20213;-72
2022/06/22 09:12:13;;;;;;;6.43;3.65;;;22.30;82.50;;;;;;4976714;28;20636;-72
2022/06/22 09:14:58;;;;;;;4.38;3.35;;;22.70;82.40;;;;;;4976153;28;20200;-72
2022/06/22 09:17:42;;;;;;;5.55;2.97;;;22.70;83.90;;;;;;4992995;28;20208;-72
2022/06/22 09:20:33;;;;;;;5.15;3.35;;;22.80;88.20;;;;;;4976553;28;20208;-72
2022/06/22 09:23:06;;;;;;;5.82;3.10;;;22.90;70.80;;;;;;4977190;28;20251;-72
2022/06/22 09:25:40;;;;;;;5.13;3.13;;;23.00;69.40;;;;;;4992458;28;20215;-72
2022/06/22 09:28:12;;;;;;;5.55;2.90;;;23.10;63.90;;;;;;4989378;28;20295;-73
2022/06/22 09:31:01;;;;;;;6.95;3.28;;;23.60;63.00;;;;;;4988518;28;20225;-72
2022/06/22 09:33:57;;;;;;;4.43;2.80;;;23.70;67.80;;;;;;4986363;28;20220;-72
2022/06/22 09:37:08;;;;;;;4.90;2.70;;;23.90;52.30;;;;;;4968537;28;20679;-72
2022/06/22 09:40:02;;;;;;;5.35;2.95;;;24.70;44.30;;;;;;4973105;28;20221;-73
2022/06/22 09:43:00;;;;;;;4.43;2.53;;;24.00;53.30;;;;;;4985263;28;20213;-73
2022/06/22 09:45:45;;;;;;;6.68;2.72;;;24.10;52.40;;;;;;4992701;28;20201;-73
2022/06/22 09:48:32;;;;;;;4.93;2.75;;;23.90;49.60;;;;;;4975386;28;20212;-73
2022/06/22 09:51:32;;;;;;;4.93;2.50;;;24.10;44.90;;;;;;4992697;28;20205;-73
2022/06/22 09:57:11;;;;;;;3.90;2.30;;;23.40;41.60;;;;;;4978233;28;20204;-72
2022/06/22 09:59:57;;;;;;;2.38;2.13;;;24.20;40.80;;;;;;4996058;28;20553;-72
2022/06/22 10:02:50;;;;;;;3.30;2.22;;;23.70;40.30;;;;;;4996236;28;20194;-72
2022/06/22 10:05:52;;;;;;;5.82;2.40;;;23.40;41.30;;;;;;4980877;28;20205;-72
2022/06/22 10:08:43;;;;;;;2.85;2.30;;;23.70;41.70;;;;;;4980237;28;20210;-72
2022/06/22 10:11:22;;;;;;;4.82;2.40;;;23.40;40.80;;;;;;4981576;28;20284;-72
2022/06/22 10:14:31;;;;;;;5.90;2.53;;;23.60;42.80;;;;;;4995703;28;20211;-72
2022/06/22 10:17:14;;;;;;;6.38;2.92;;;23.70;44.60;;;;;;4981115;28;20228;-72
2022/06/22 10:20:01;;;;;;;3.80;2.78;;;23.60;49.90;;;;;;4981368;28;20608;-72
2022/06/22 10:22:50;;;;;;;6.60;2.80;;;23.60;49.60;;;;;;4978097;28;20204;-72
2022/06/22 10:25:48;;;;;;;4.38;2.85;;;23.70;51.00;;;;;;4995966;28;20272;-72
2022/06/22 10:28:44;;;;;;;5.18;2.97;;;23.40;49.10;;;;;;4980336;28;20220;-68
2022/06/22 10:31:20;;;;;;;4.32;2.97;;;24.10;45.90;;;;;;4975927;28;20676;-69
2022/06/22 10:34:22;;;;;;;3.72;2.33;;;24.30;38.00;;;;;;4958714;28;20197;-68
2022/06/22 10:37:05;;;;;;;5.32;3.05;;;24.60;38.80;;;;;;4969032;28;20255;-69
2022/06/22 10:39:47;;;;;;;3.95;2.90;;;24.40;37.80;;;;;;4994985;28;20236;-69
2022/06/22 10:45:31;;;;;;;4.38;2.60;;;24.30;37.10;;;;;;4980365;28;20235;-68
2022/06/22 10:48:28;;;;;;;4.70;2.20;;;25.10;34.60;;;;;;4995250;28;20296;-69
2022/06/22 10:51:06;;;;;;;2.42;2.03;;;25.70;30.40;;;;;;4981320;28;20288;-69
2022/06/22 10:54:07;;;;;;;6.53;2.70;;;25.20;32.50;;;;;;4958375;28;20202;-69
2022/06/22 10:56:53;;;;;;;6.22;2.15;;;25.00;35.80;;;;;;4978570;28;20295;-69
2022/06/22 10:59:41;;;;;;;6.50;2.78;;;25.40;30.40;;;;;;4994916;28;20209;-69
2022/06/22 11:03:02;;;;;;;5.38;2.42;;;25.20;27.00;;;;;;4991201;28;20201;-69
2022/06/22 11:05:44;;;;;;;5.88;2.53;;;25.30;26.50;;;;;;4994993;28;20301;-69
2022/06/22 11:08:35;;;;;;;2.97;2.22;;;25.60;28.60;;;;;;4994964;28;20211;-69
2022/06/22 11:11:13;;;;;;;3.92;2.40;;;25.60;26.30;;;;;;4994299;28;20201;-69
2022/06/22 11:14:12;;;;;;;4.38;2.47;;;25.40;29.70;;;;;;4977708;28;20635;-69
2022/06/22 11:16:59;;;;;;;3.38;1.90;;;25.40;26.00;;;;;;4992301;28;20578;-69
2022/06/22 11:20:00;;;;;;;4.45;2.60;;;25.20;29.80;;;;;;4983301;28;20198;-70
2022/06/22 11:22:32;;;;;;;4.47;2.08;;;25.90;23.50;;;;;;4971477;28;20201;-70
2022/06/22 11:31:57;;;;;;;2.35;2.15;;;26.00;24.70;;;;;;4960380;28;20208;-70
2022/06/22 11:35:00;;;;;;;4.93;2.45;;;25.90;26.50;;;;;;4961009;28;20201;-69
2022/06/22 11:37:42;;;;;;;8.15;2.70;;;26.30;25.20;;;;;;4994015;28;20201;-69
2022/06/22 11:40:34;;;;;;;5.53;2.83;;;25.20;29.50;;;;;;4993659;28;20213;-69
2022/06/22 11:43:21;;;;;;;3.85;2.25;;;25.00;25.60;;;;;;4994056;28;20312;-69
2022/06/22 11:45:58;;;;;;;4.50;2.53;;;25.40;26.10;;;;;;4978436;28;20207;-69
2022/06/22 11:48:57;;;;;;;4.43;2.40;;;25.40;22.60;;;;;;4973592;28;20200;-69
2022/06/22 11:51:40;;;;;;;2.10;1.90;;;25.70;23.00;;;;;;4992596;28;20201;-69
2022/06/22 11:54:46;;;;;;;6.07;2.85;;;26.00;23.70;;;;;;4977116;28;20204;-69
2022/06/22 11:57:48;;;;;;;3.70;2.42;;;24.90;24.70;;;;;;4962804;28;20292;-69
2022/06/22 12:00:25;;;;;;;2.50;1.92;;;25.70;21.40;;;;;;4967811;28;20565;-69
2022/06/22 12:03:18;;;;;;;2.95;2.15;;;25.60;21.80;;;;;;4962705;28;20299;-69
2022/06/22 12:05:59;;;;;;;2.63;1.95;;;25.40;24.30;;;;;;4993645;28;20240;-69
2022/06/22 12:08:40;;;;;;;4.15;2.13;;;25.40;21.60;;;;;;4976622;28;20209;-69
2022/06/22 12:11:17;;;;;;;5.38;2.67;;;25.30;22.00;;;;;;4993423;28;20299;-69
2022/06/22 12:17:05;;;;;;;3.53;2.50;;;25.60;24.40;;;;;;4979293;28;20573;-69
2022/06/22 12:19:44;;;;;;;2.90;2.33;;;25.70;26.60;;;;;;4976245;28;20215;-69
2022/06/22 12:22:18;;;;;;;3.47;1.92;;;25.90;21.00;;;;;;4976628;28;20702;-69
2022/06/22 12:25:00;;;;;;;5.25;2.25;;;27.30;17.00;;;;;;4992742;28;20263;-69
2022/06/22 12:27:30;;;;;;;6.07;3.15;;;27.60;14.90;;;;;;4965735;28;20201;-69
2022/06/22 12:30:19;;;;;;;3.50;1.90;;;27.30;13.10;;;;;;4988524;28;20211;-69
2022/06/22 12:32:51;;;;;;;3.85;2.10;;;27.40;17.80;;;;;;4990517;28;20332;-69
2022/06/22 12:35:31;;;;;;;2.53;1.88;;;26.30;18.00;;;;;;4977704;28;20715;-69
2022/06/22 12:38:04;;;;;;;3.45;2.05;;;26.00;17.10;;;;;;4982464;28;20196;-69
2022/06/22 12:40:40;;;;;;;5.40;2.05;;;26.20;14.70;;;;;;4992856;28;20213;-69
2022/06/22 12:43:29;;;;;;;2.75;1.90;;;26.80;13.00;;;;;;4982929;28;20292;-69
2022/06/22 12:45:56;;;;;;;4.28;1.80;;;26.10;13.40;;;;;;4975976;28;20303;-69
2022/06/22 12:49:14;;;;;;;2.00;1.58;;;26.60;16.30;;;;;;4993145;28;20209;-69
2022/06/22 12:51:49;;;;;;;2.70;2.00;;;26.40;16.30;;;;;;4983165;28;20548;-69
2022/06/22 12:54:24;;;;;;;5.40;2.08;;;25.90;19.30;;;;;;4969068;28;20203;-69
2022/06/22 12:56:54;;;;;;;3.92;1.98;;;26.20;18.30;;;;;;4975833;28;20212;-69
2022/06/22 12:59:28;;;;;;;2.90;2.00;;;26.10;16.60;;;;;;4992993;28;20574;-69
2022/06/22 13:01:55;;;;;;;2.55;2.10;;;25.90;17.60;;;;;;4993454;28;20201;-69
2022/06/22 13:04:25;;;;;;;3.47;1.90;;;26.30;15.80;;;;;;4993246;28;20235;-69
2022/06/22 13:06:59;;;;;;;4.25;2.17;;;26.00;18.90;;;;;;4993057;28;20216;-69
2022/06/22 13:09:27;;;;;;;1.83;1.73;;;26.00;18.40;;;;;;4992940;28;20212;-69
2022/06/22 13:11:58;;;;;;;2.58;1.90;;;25.80;16.60;;;;;;4992797;28;20201;-69
2022/06/22 13:14:34;;;;;;;3.42;2.03;;;26.10;14.10;;;;;;4993267;28;20719;-69
2022/06/22 13:17:17;;;;;;;5.65;1.90;;;25.70;15.90;;;;;;4993459;28;20213;-69
2022/06/22 13:20:01;;;;;;;5.15;2.00;;;25.90;11.20;;;;;;4975652;28;20668;-69
2022/06/22 13:22:36;;;;;;;3.25;1.92;;;26.50;11.80;;;;;;4993111;28;20296;-69
2022/06/22 13:25:15;;;;;;;3.92;1.95;;;26.30;10.00;;;;;;4993365;28;20307;-69
2022/06/22 13:27:52;;;;;;;3.72;1.77;;;26.30;11.40;;;;;;4993153;28;20675;-69
2022/06/22 13:30:23;;;;;;;3.40;2.03;;;26.40;11.20;;;;;;4975497;28;20209;-69
2022/06/22 13:33:02;;;;;;;3.50;2.00;;;26.20;9.30;;;;;;4994868;28;20295;-69
2022/06/22 13:35:34;;;;;;;3.05;2.03;;;26.00;8.70;;;;;;4997002;28;20208;-69
2022/06/22 13:38:17;;;;;;;5.60;2.00;;;26.30;8.10;;;;;;4996562;28;20681;-69
2022/06/22 13:40:54;;;;;;;2.25;1.80;;;26.50;10.90;;;;;;4996542;28;20631;-69
2022/06/22 13:43:34;;;;;;;2.58;2.10;;;26.40;7.60;;;;;;4996607;28;20207;-69
2022/06/22 13:46:28;;;;;;;1.88;1.77;;;26.60;7.20;;;;;;4979267;28;20237;-73
2022/06/22 13:49:00;;;;;;;1.85;1.63;;;26.60;10.70;;;;;;4996368;28;20204;-72
2022/06/22 13:52:03;;;;;;;2.50;1.55;;;26.10;6.00;;;;;;4996209;28;20209;-73
2022/06/22 13:54:57;;;;;;;2.30;2.00;;;26.50;5.80;;;;;;4984651;28;20598;-73
2022/06/22 13:57:36;;;;;;;2.28;1.73;;;26.90;10.40;;;;;;4996383;28;20251;-72
2022/06/22 14:00:11;;;;;;;1.65;1.50;;;26.40;4.70;;;;;;4978910;28;20273;-74
2022/06/22 14:02:58;;;;;;;1.70;1.60;;;26.50;8.00;;;;;;4979178;28;20291;-74